Time;durP1;ratioP1;P1;durP2;ratioP2;P2;SDS_P1;SDS_P2;PMS_P1;PMS_P2;Temp;Humidity;BMP_temperature;BMP_pressure;BME280_temperature;BME280_humidity;BME280_pressure;Samples;Min_cycle;Max_cycle;Signal;HPM_P1;HPM_P2
2022/11/17 00:02:16;;;;;;;6.33;3.40;;;;;;;1.90;95.51;99197.28;4163010;28;20353;-72
2022/11/17 00:04:43;;;;;;;4.67;3.00;;;;;;;1.91;95.64;99198.91;4148379;28;21833;-72
2022/11/17 00:07:10;;;;;;;5.13;3.20;;;;;;;1.87;94.60;99200.97;4145807;28;20236;-68
2022/11/17 00:09:36;;;;;;;5.17;3.17;;;;;;;1.82;94.67;99207.50;4150425;28;20235;-70
2022/11/17 00:14:52;;;;;;;5.87;3.03;;;;;;;1.80;94.77;99205.03;4151321;28;21866;-70
2022/11/17 00:17:19;;;;;;;4.30;2.90;;;;;;;1.82;93.82;99213.59;4140778;28;20231;-69
2022/11/17 00:22:31;;;;;;;6.73;2.80;;;;;;;1.79;93.71;99213.00;4146074;28;20327;-69
2022/11/17 00:24:58;;;;;;;5.00;3.13;;;;;;;1.82;93.15;99204.88;4158177;28;20237;-69
2022/11/17 00:27:24;;;;;;;5.27;2.53;;;;;;;1.83;91.79;99207.41;4155722;28;20244;-70
2022/11/17 00:29:51;;;;;;;3.43;2.37;;;;;;;1.80;92.34;99209.41;4149544;28;20308;-71
2022/11/17 00:35:05;;;;;;;7.10;3.90;;;;;;;1.68;92.11;99213.81;4164632;28;20292;-75
2022/11/17 00:38:14;;;;;;;6.17;3.30;;;;;;;1.63;92.64;99214.19;4131602;28;20868;-72
2022/11/17 00:40:25;;;;;;;5.10;3.30;;;;;;;1.64;92.57;99215.88;4155990;28;20283;-68
2022/11/17 00:42:51;;;;;;;4.23;2.70;;;;;;;1.75;92.73;99222.06;4149428;28;20239;-71
2022/11/17 00:45:18;;;;;;;5.37;2.73;;;;;;;1.71;93.82;99223.25;4131974;28;20236;-71
2022/11/17 00:47:44;;;;;;;4.43;2.90;;;;;;;1.68;93.68;99219.91;4152814;28;20246;-70
2022/11/17 00:50:11;;;;;;;4.53;3.00;;;;;;;1.67;94.12;99218.25;4154607;28;20239;-69
2022/11/17 00:52:38;;;;;;;4.30;2.70;;;;;;;1.62;93.88;99209.06;4135084;28;23223;-72
2022/11/17 00:55:05;;;;;;;4.13;2.70;;;;;;;1.61;94.06;99221.31;4138330;28;20310;-72
2022/11/17 00:57:31;;;;;;;4.40;3.03;;;;;;;1.66;93.12;99221.84;4141467;28;20231;-72
2022/11/17 00:59:58;;;;;;;5.40;3.10;;;;;;;1.59;93.41;99215.38;4158345;28;20336;-68
2022/11/17 01:02:24;;;;;;;4.60;3.00;;;;;;;1.61;93.86;99221.31;4144582;28;20298;-71
2022/11/17 01:04:51;;;;;;;7.20;2.93;;;;;;;1.58;93.31;99223.38;4140678;28;20307;-70
2022/11/17 01:07:17;;;;;;;5.43;3.17;;;;;;;1.62;94.01;99215.16;4179813;28;22532;-71
2022/11/17 01:09:44;;;;;;;4.50;2.77;;;;;;;1.55;94.27;99210.50;4154698;28;20237;-72
2022/11/17 01:12:11;;;;;;;4.30;2.70;;;;;;;1.54;94.16;99212.25;4179276;28;20302;-71
2022/11/17 01:14:37;;;;;;;9.37;2.73;;;;;;;1.56;93.35;99209.53;4156742;28;20805;-69
2022/11/17 01:17:04;;;;;;;6.13;2.70;;;;;;;1.60;91.82;99221.47;4186480;28;20222;-71
2022/11/17 01:19:30;;;;;;;5.57;2.43;;;;;;;1.56;91.33;99207.75;4154146;28;20957;-71
2022/11/17 01:21:57;;;;;;;3.93;2.50;;;;;;;1.53;90.52;99209.78;4174039;28;20351;-68
2022/11/17 01:24:23;;;;;;;4.23;2.57;;;;;;;1.39;89.77;99205.59;4155831;28;20295;-70
2022/11/17 01:26:50;;;;;;;3.20;2.03;;;;;;;1.39;89.31;99208.22;4160325;28;20317;-70
2022/11/17 01:29:17;;;;;;;4.80;2.07;;;;;;;1.29;89.19;99207.22;4160236;28;21265;-68
2022/11/17 01:31:44;;;;;;;3.20;2.20;;;;;;;1.33;88.65;99212.09;4161233;28;20363;-71
2022/11/17 01:34:11;;;;;;;4.77;2.70;;;;;;;1.26;88.64;99209.16;4147694;28;20237;-72
2022/11/17 01:39:27;;;;;;;4.10;2.67;;;;;;;1.17;89.73;99220.31;4181480;28;21555;-71
2022/11/17 01:41:54;;;;;;;5.00;2.70;;;;;;;1.15;89.96;99209.13;4173545;28;20233;-71
2022/11/17 01:44:47;;;;;;;4.20;2.47;;;;;;;1.21;89.48;99206.00;4155867;28;21697;-69
2022/11/17 01:47:18;;;;;;;3.57;2.30;;;;;;;1.22;89.16;99199.84;4159900;28;21223;-71
2022/11/17 01:49:45;;;;;;;4.13;2.50;;;;;;;1.13;89.80;99208.41;4171986;28;20290;-70
2022/11/17 01:52:12;;;;;;;6.67;3.00;;;;;;;1.15;90.33;99210.91;4165596;28;21821;-73
2022/11/17 01:54:40;;;;;;;4.63;3.07;;;;;;;1.12;90.56;99211.94;4170528;28;23294;-71
2022/11/17 01:57:11;;;;;;;6.87;3.20;;;;;;;0.98;90.24;99207.75;4169519;28;20245;-71
2022/11/17 01:59:56;;;;;;;4.80;3.20;;;;;;;0.97;89.69;99210.50;4167646;28;20396;-71
2022/11/17 02:02:22;;;;;;;5.17;2.80;;;;;;;1.02;89.50;99206.56;4163850;28;20268;-69
2022/11/17 02:04:58;;;;;;;5.10;3.37;;;;;;;1.00;89.02;99212.88;4154537;28;21235;-68
2022/11/17 02:07:27;;;;;;;4.60;3.23;;;;;;;0.96;88.86;99208.81;4160703;28;20241;-70
2022/11/17 02:09:55;;;;;;;4.57;3.00;;;;;;;0.94;88.93;99210.72;4176397;28;20432;-69
2022/11/17 02:12:23;;;;;;;5.13;3.40;;;;;;;0.91;89.60;99203.91;4153228;28;20349;-70
2022/11/17 02:14:50;;;;;;;4.20;2.90;;;;;;;0.90;89.23;99190.94;4165827;28;21695;-68
2022/11/17 02:17:17;;;;;;;4.47;2.87;;;;;;;0.91;89.35;99197.84;4155337;28;22125;-68
2022/11/17 02:19:52;;;;;;;5.73;3.00;;;;;;;0.83;89.56;99204.47;4161444;28;20234;-69
2022/11/17 02:22:36;;;;;;;5.17;3.60;;;;;;;0.83;89.64;99198.41;4176982;28;21571;-69
2022/11/17 02:25:26;;;;;;;4.93;3.23;;;;;;;0.97;89.17;99197.38;4154104;28;20524;-70
2022/11/17 02:28:04;;;;;;;5.77;2.90;;;;;;;0.88;89.24;99191.03;4173206;28;21560;-71
2022/11/17 02:30:43;;;;;;;5.83;3.50;;;;;;;0.83;89.87;99187.94;4171086;28;20249;-71
2022/11/17 02:33:22;;;;;;;5.27;3.00;;;;;;;0.83;89.43;99186.16;4153310;28;20428;-69
2022/11/17 02:35:58;;;;;;;4.70;2.90;;;;;;;0.78;90.04;99182.22;4154163;28;20233;-69
2022/11/17 02:39:09;;;;;;;5.40;3.20;;;;;;;0.79;90.48;99195.19;4155328;28;22818;-69
2022/11/17 02:41:55;;;;;;;6.17;2.90;;;;;;;0.75;90.83;99193.75;4162473;28;20236;-70
2022/11/17 02:44:31;;;;;;;4.90;2.70;;;;;;;0.71;91.64;99192.31;4159803;28;20670;-70
2022/11/17 02:47:03;;;;;;;4.97;3.23;;;;;;;0.86;90.84;99192.94;4145972;28;20713;-67
2022/11/17 02:49:38;;;;;;;5.47;2.93;;;;;;;0.88;90.54;99200.69;4159156;28;26221;-70
2022/11/17 02:52:05;;;;;;;3.63;2.70;;;;;;;0.86;90.12;99185.09;4160694;28;20311;-69
2022/11/17 02:54:32;;;;;;;3.60;2.40;;;;;;;0.76;90.03;99184.09;4169420;28;20301;-68
2022/11/17 02:56:58;;;;;;;4.63;2.80;;;;;;;0.70;89.57;99195.84;4168769;28;23452;-68
2022/11/17 02:59:33;;;;;;;4.47;2.80;;;;;;;0.67;89.12;99195.25;4156621;28;20652;-68
2022/11/17 03:02:07;;;;;;;5.33;3.03;;;;;;;0.59;88.75;99190.59;4184635;28;22237;-68
2022/11/17 03:05:14;;;;;;;3.93;2.33;;;;;;;0.56;88.91;99189.03;4182160;28;21228;-70
2022/11/17 03:07:55;;;;;;;5.50;2.97;;;;;;;0.53;89.73;99193.66;4175928;28;20241;-69
2022/11/17 03:10:35;;;;;;;3.77;2.37;;;;;;;0.49;89.83;99200.03;4170663;28;21806;-72
2022/11/17 03:13:24;;;;;;;4.87;2.53;;;;;;;0.54;89.37;99190.94;4158190;28;20245;-68
2022/11/17 03:16:04;;;;;;;5.47;2.97;;;;;;;0.60;89.40;99193.06;4193723;28;22095;-69
2022/11/17 03:18:57;;;;;;;4.53;2.50;;;;;;;0.62;89.16;99198.22;4159950;28;23841;-70
2022/11/17 03:21:43;;;;;;;6.77;2.70;;;;;;;0.57;89.39;99198.53;4186625;28;21602;-71
2022/11/17 03:24:17;;;;;;;6.37;2.80;;;;;;;0.59;90.04;99194.03;4160461;28;22585;-71
2022/11/17 03:26:50;;;;;;;3.67;2.40;;;;;;;0.55;90.64;99197.00;4173360;28;21264;-71
2022/11/17 03:29:19;;;;;;;5.33;2.70;;;;;;;0.62;90.55;99195.59;4151569;28;20469;-69
2022/11/17 03:31:48;;;;;;;4.17;2.40;;;;;;;0.51;91.09;99178.03;4166626;28;20225;-71
2022/11/17 03:34:15;;;;;;;4.40;2.60;;;;;;;0.52;91.39;99192.00;4149534;28;20299;-69
2022/11/17 03:36:46;;;;;;;5.40;2.80;;;;;;;0.55;91.75;99187.34;4173246;28;20246;-68
2022/11/17 03:39:19;;;;;;;5.87;2.90;;;;;;;0.58;91.81;99194.13;4182302;28;21209;-69
2022/11/17 03:41:47;;;;;;;7.63;2.57;;;;;;;0.53;92.40;99198.88;4148801;28;20253;-68
2022/11/17 03:44:15;;;;;;;4.20;2.70;;;;;;;0.47;92.25;99199.31;4187241;28;20691;-72
2022/11/17 03:46:42;;;;;;;3.63;2.60;;;;;;;0.45;92.93;99201.25;4152491;28;20230;-67
2022/11/17 03:49:28;;;;;;;5.20;2.43;;;;;;;0.52;92.86;99202.47;4161921;28;20255;-70
2022/11/17 03:51:55;;;;;;;4.73;2.60;;;;;;;0.48;92.73;99207.06;4184306;28;20286;-67
2022/11/17 03:54:22;;;;;;;3.80;2.70;;;;;;;0.48;92.87;99203.63;4154442;28;20384;-68
2022/11/17 03:57:19;;;;;;;6.70;3.13;;;;;;;0.42;92.58;99191.78;4174829;28;20237;-71
2022/11/17 03:59:54;;;;;;;4.60;2.50;;;;;;;0.34;93.78;99186.31;4163167;28;20696;-70
2022/11/17 04:02:21;;;;;;;4.50;2.60;;;;;;;0.39;93.59;99186.78;4154414;28;20416;-67
2022/11/17 04:05:06;;;;;;;4.73;2.80;;;;;;;0.36;94.14;99193.09;4167734;28;20706;-69
2022/11/17 04:07:40;;;;;;;9.43;3.00;;;;;;;0.38;93.99;99188.59;4158462;28;20305;-69
2022/11/17 04:10:10;;;;;;;6.67;2.80;;;;;;;0.36;93.54;99193.09;4150408;28;21504;-71
2022/11/17 04:18:07;;;;;;;4.80;2.60;;;;;;;0.34;94.21;99189.75;4164196;28;20631;-71
2022/11/17 04:20:36;;;;;;;5.63;2.70;;;;;;;0.28;94.28;99190.22;4169914;28;22092;-73
2022/11/17 04:23:10;;;;;;;6.47;3.00;;;;;;;0.29;94.11;99197.09;4160466;28;21149;-68
2022/11/17 04:28:35;;;;;;;4.60;2.73;;;;;;;0.31;94.65;99200.44;4177719;28;20388;-68
2022/11/17 04:31:08;;;;;;;7.10;2.63;;;;;;;0.27;94.26;99198.97;4165512;28;20542;-68
2022/11/17 04:33:35;;;;;;;5.27;3.20;;;;;;;0.33;94.28;99203.78;4176512;28;20956;-70
2022/11/17 04:36:04;;;;;;;5.60;3.30;;;;;;;0.27;93.84;99204.22;4144423;28;20234;-69
2022/11/17 04:38:31;;;;;;;4.10;2.67;;;;;;;0.27;94.09;99208.63;4152306;28;20443;-70
2022/11/17 04:43:51;;;;;;;4.07;2.60;;;;;;;0.25;94.01;99194.81;4169107;28;21868;-68
2022/11/17 04:46:18;;;;;;;4.97;2.47;;;;;;;0.28;93.63;99205.03;4168331;28;20434;-68
2022/11/17 04:48:46;;;;;;;4.97;2.90;;;;;;;0.33;93.94;99211.63;4165697;28;20248;-70
2022/11/17 04:51:14;;;;;;;5.53;3.30;;;;;;;0.33;93.00;99205.56;4161546;28;20397;-71
2022/11/17 04:53:41;;;;;;;5.57;3.03;;;;;;;0.28;93.54;99207.66;4169337;28;20234;-72
2022/11/17 04:56:08;;;;;;;4.37;2.63;;;;;;;0.21;93.55;99202.03;4157367;28;20474;-70
2022/11/17 04:58:34;;;;;;;7.73;3.20;;;;;;;0.26;93.36;99206.94;4153979;28;20401;-70
2022/11/17 05:01:13;;;;;;;4.37;2.57;;;;;;;0.24;93.13;99209.69;4157390;28;20338;-70
2022/11/17 05:03:47;;;;;;;6.03;2.80;;;;;;;0.21;93.01;99215.09;4191072;28;22706;-69
2022/11/17 05:06:20;;;;;;;4.50;2.80;;;;;;;0.18;92.70;99207.50;4155365;28;20375;-71
2022/11/17 05:08:47;;;;;;;5.70;2.93;;;;;;;0.25;93.26;99211.34;4171082;28;20462;-70
2022/11/17 05:14:01;;;;;;;3.93;2.53;;;;;;;0.37;92.39;99215.69;4161366;28;20416;-67
2022/11/17 05:19:16;;;;;;;6.87;2.87;;;;;;;0.29;91.77;99210.19;4166082;28;20418;-68
2022/11/17 05:21:42;;;;;;;4.90;2.47;;;;;;;0.29;91.52;99210.19;4159857;28;20294;-69
2022/11/17 05:24:09;;;;;;;4.17;2.50;;;;;;;0.21;91.76;99209.88;4171079;28;20253;-68
2022/11/17 05:26:37;;;;;;;4.43;2.60;;;;;;;0.22;91.81;99213.34;4154560;28;20228;-68
2022/11/17 05:29:05;;;;;;;4.53;2.70;;;;;;;0.27;92.15;99203.38;4160128;28;20236;-68
2022/11/17 05:31:32;;;;;;;3.60;2.60;;;;;;;0.24;91.68;99201.81;4153415;28;20237;-68
2022/11/17 05:33:58;;;;;;;4.33;2.70;;;;;;;0.25;91.05;99195.63;4171641;28;20231;-72
2022/11/17 05:36:25;;;;;;;5.67;2.60;;;;;;;0.26;90.78;99201.69;4164666;28;20294;-69
2022/11/17 05:38:56;;;;;;;6.30;2.50;;;;;;;0.29;90.57;99194.47;4159036;28;20231;-71
2022/11/17 05:41:23;;;;;;;4.93;2.70;;;;;;;0.26;91.17;99192.09;4163118;28;20303;-69
2022/11/17 05:43:50;;;;;;;4.33;2.70;;;;;;;0.28;91.18;99198.06;4159085;28;22234;-69
2022/11/17 05:46:18;;;;;;;4.00;2.60;;;;;;;0.20;91.37;99205.59;4158306;28;20763;-69
2022/11/17 05:48:45;;;;;;;4.10;2.40;;;;;;;0.19;91.13;99196.09;4161458;28;20851;-68
2022/11/17 05:51:11;;;;;;;4.33;2.40;;;;;;;0.20;90.62;99202.97;4177874;28;20325;-68
2022/11/17 05:53:38;;;;;;;6.27;2.70;;;;;;;0.24;90.72;99201.00;4157817;28;20231;-72
2022/11/17 05:56:27;;;;;;;9.07;2.97;;;;;;;0.20;91.03;99213.44;4170804;28;20238;-68
2022/11/17 05:59:00;;;;;;;4.73;2.50;;;;;;;0.18;91.22;99207.50;4165466;28;20227;-69
2022/11/17 06:01:28;;;;;;;5.43;2.60;;;;;;;0.26;91.25;99213.03;4160719;28;21230;-71
2022/11/17 06:03:57;;;;;;;4.03;2.40;;;;;;;0.35;90.42;99214.13;4184934;28;20314;-71
2022/11/17 06:06:23;;;;;;;4.07;2.50;;;;;;;0.30;90.42;99214.44;4161808;28;20232;-69
2022/11/17 06:08:50;;;;;;;3.30;2.30;;;;;;;0.27;90.61;99217.28;4166516;28;20412;-68
2022/11/17 06:11:18;;;;;;;5.17;2.60;;;;;;;0.12;91.28;99214.00;4162738;28;20230;-69
2022/11/17 06:13:44;;;;;;;4.73;2.77;;;;;;;0.20;90.68;99211.66;4150342;28;21230;-67
2022/11/17 06:16:12;;;;;;;5.17;2.60;;;;;;;0.12;90.90;99218.41;4157757;28;20231;-67
2022/11/17 06:18:44;;;;;;;3.63;2.53;;;;;;;0.17;91.02;99218.91;4161163;28;20236;-68
2022/11/17 06:21:13;;;;;;;6.00;2.60;;;;;;;0.19;91.00;99224.88;4145336;28;22517;-68
2022/11/17 06:23:39;;;;;;;5.43;2.83;;;;;;;0.10;90.67;99212.44;4164998;28;20295;-69
2022/11/17 06:26:07;;;;;;;6.97;2.40;;;;;;;0.17;90.65;99221.53;4165988;28;21362;-68
2022/11/17 06:28:35;;;;;;;7.00;2.90;;;;;;;0.21;90.34;99225.56;4166736;28;26422;-68
2022/11/17 06:31:01;;;;;;;6.10;2.70;;;;;;;0.19;90.24;99219.63;4146497;28;20303;-70
2022/11/17 06:33:29;;;;;;;8.23;2.50;;;;;;;0.18;90.02;99221.41;4166788;28;22985;-70
2022/11/17 06:35:58;;;;;;;6.83;2.87;;;;;;;0.17;90.19;99221.53;4180843;28;20373;-72
2022/11/17 06:38:25;;;;;;;4.00;2.40;;;;;;;0.17;89.60;99222.34;4159414;28;20234;-70
2022/11/17 06:40:52;;;;;;;5.00;2.33;;;;;;;0.22;89.54;99222.03;4170786;28;20312;-68
2022/11/17 06:43:20;;;;;;;4.27;2.30;;;;;;;0.17;89.54;99234.59;4158328;28;20242;-69
2022/11/17 06:45:47;;;;;;;3.43;2.17;;;;;;;0.22;89.27;99227.25;4156735;28;20244;-70
2022/11/17 06:48:15;;;;;;;8.00;2.87;;;;;;;0.17;89.32;99224.13;4156243;28;20244;-70
2022/11/17 06:50:42;;;;;;;5.30;2.70;;;;;;;0.12;89.36;99224.47;4169488;28;20430;-68
2022/11/17 06:53:10;;;;;;;4.57;2.70;;;;;;;0.19;88.51;99230.09;4175145;28;21312;-68
2022/11/17 06:55:37;;;;;;;3.83;2.40;;;;;;;0.14;88.34;99229.56;4152432;28;20299;-70
2022/11/17 06:58:05;;;;;;;6.87;2.83;;;;;;;0.22;88.18;99215.97;4179115;28;20341;-69
2022/11/17 07:00:33;;;;;;;4.13;2.50;;;;;;;0.18;87.32;99224.00;4166499;28;20249;-70
2022/11/17 07:03:08;;;;;;;5.40;2.20;;;;;;;0.11;86.79;99216.72;4169787;28;20254;-69
2022/11/17 07:05:36;;;;;;;3.43;2.20;;;;;;;0.01;87.76;99223.56;4162811;28;20567;-69
2022/11/17 07:08:06;;;;;;;4.87;2.47;;;;;;;0.11;86.44;99222.78;4147972;28;21862;-69
2022/11/17 07:10:34;;;;;;;6.37;2.60;;;;;;;0.04;86.90;99232.00;4148464;28;20568;-71
2022/11/17 07:13:02;;;;;;;4.47;2.70;;;;;;;0.13;86.44;99233.13;4166889;28;20258;-70
2022/11/17 07:15:28;;;;;;;4.40;2.63;;;;;;;0.02;86.04;99226.03;4155517;28;20370;-69
2022/11/17 07:17:56;;;;;;;4.53;2.60;;;;;;;0.03;85.61;99222.50;4159814;28;20544;-68
2022/11/17 07:20:23;;;;;;;4.37;2.50;;;;;;;0.09;85.48;99231.69;4189596;28;21693;-69
2022/11/17 07:22:49;;;;;;;4.50;2.80;;;;;;;0.11;85.30;99227.19;4183953;28;20306;-68
2022/11/17 07:25:16;;;;;;;5.70;2.90;;;;;;;0.13;84.90;99228.75;4167861;28;20679;-72
2022/11/17 07:27:48;;;;;;;6.60;3.10;;;;;;;0.08;84.80;99230.03;4157290;28;20250;-67
2022/11/17 07:30:14;;;;;;;5.50;3.50;;;;;;;0.03;85.76;99239.97;4165488;28;20320;-68
2022/11/17 07:32:41;;;;;;;5.80;3.40;;;;;;;-0.08;86.28;99233.69;4184157;28;20342;-69
2022/11/17 07:35:08;;;;;;;4.40;2.83;;;;;;;-0.04;85.87;99232.53;4193950;28;20239;-70
2022/11/17 07:37:34;;;;;;;6.33;3.17;;;;;;;0.07;85.82;99241.41;4161514;28;20225;-69
2022/11/17 07:40:01;;;;;;;6.10;2.80;;;;;;;0.10;86.16;99238.59;4196192;28;20268;-69
2022/11/17 07:42:27;;;;;;;4.93;3.40;;;;;;;0.03;85.80;99246.03;4178177;28;20421;-70
2022/11/17 07:44:54;;;;;;;7.80;3.30;;;;;;;0.02;86.07;99241.72;4168444;28;21243;-70
2022/11/17 07:47:20;;;;;;;6.07;3.80;;;;;;;-0.02;85.99;99251.59;4184774;28;20305;-68
2022/11/17 07:49:47;;;;;;;5.93;3.70;;;;;;;-0.10;86.67;99246.03;4164535;28;20407;-68
2022/11/17 07:52:13;;;;;;;9.03;4.10;;;;;;;0.03;86.41;99253.06;4194553;28;20341;-67
2022/11/17 07:54:40;;;;;;;5.53;3.90;;;;;;;0.04;86.30;99254.72;4180537;28;20240;-70
2022/11/17 07:57:07;;;;;;;9.17;3.90;;;;;;;0.03;85.79;99253.06;4176965;28;20340;-68
2022/11/17 07:59:33;;;;;;;7.03;3.73;;;;;;;-0.05;86.04;99245.72;4225908;28;22822;-69
2022/11/17 08:02:00;;;;;;;8.90;4.20;;;;;;;0.01;86.45;99242.69;4182324;28;23027;-70
2022/11/17 08:04:26;;;;;;;6.47;3.70;;;;;;;-0.06;86.38;99244.88;4174221;28;20232;-68
2022/11/17 08:06:54;;;;;;;7.70;3.80;;;;;;;-0.18;84.93;99248.38;4177861;28;21441;-68
2022/11/17 08:09:20;;;;;;;6.30;3.87;;;;;;;-0.16;85.60;99249.09;4160196;28;20241;-68
2022/11/17 08:11:47;;;;;;;7.13;4.10;;;;;;;-0.14;85.69;99249.84;4164593;28;26384;-65
2022/11/17 08:14:14;;;;;;;8.17;4.40;;;;;;;-0.16;85.51;99249.09;4163934;28;23222;-68
2022/11/17 08:16:41;;;;;;;7.30;4.67;;;;;;;-0.16;85.63;99254.31;4171538;28;20748;-68
2022/11/17 08:19:10;;;;;;;10.53;4.53;;;;;;;-0.22;85.61;99252.13;4151422;28;20232;-71
2022/11/17 08:21:37;;;;;;;12.03;4.83;;;;;;;-0.19;85.93;99243.22;4160480;28;21600;-67
2022/11/17 08:24:04;;;;;;;10.40;4.70;;;;;;;-0.13;85.92;99253.28;4169881;28;22321;-70
2022/11/17 08:26:30;;;;;;;6.47;4.30;;;;;;;-0.17;85.67;99251.81;4184188;28;25880;-72
2022/11/17 08:28:57;;;;;;;8.77;4.40;;;;;;;-0.25;86.12;99250.56;4162553;28;20316;-70
2022/11/17 08:31:24;;;;;;;7.13;4.53;;;;;;;-0.21;86.07;99243.34;4185239;28;20341;-69
2022/11/17 08:33:51;;;;;;;9.20;5.17;;;;;;;-0.15;85.93;99247.31;4160430;28;20299;-69
2022/11/17 08:36:17;;;;;;;7.57;4.83;;;;;;;-0.15;86.08;99255.97;4177185;28;20746;-64
2022/11/17 08:38:44;;;;;;;9.17;4.80;;;;;;;-0.19;85.52;99245.84;4160972;28;20346;-71
2022/11/17 08:41:10;;;;;;;12.53;4.70;;;;;;;-0.17;86.23;99239.56;4171621;28;20702;-72
2022/11/17 08:43:37;;;;;;;8.03;5.27;;;;;;;-0.25;86.33;99258.41;4168391;28;20731;-69
2022/11/17 08:46:03;;;;;;;9.33;5.40;;;;;;;-0.14;86.36;99246.34;4169359;28;21309;-73
2022/11/17 08:48:30;;;;;;;9.57;5.30;;;;;;;-0.24;86.49;99246.16;4175053;28;20286;-71
2022/11/17 08:50:57;;;;;;;9.27;5.20;;;;;;;-0.14;85.95;99249.84;4186914;28;20242;-70
2022/11/17 08:53:23;;;;;;;8.67;5.47;;;;;;;-0.26;86.01;99255.88;4175290;28;22663;-72
2022/11/17 08:55:51;;;;;;;6.43;4.37;;;;;;;-0.29;86.16;99245.66;4182947;28;22198;-72
2022/11/17 08:58:17;;;;;;;9.77;4.90;;;;;;;-0.24;85.17;99246.16;4159464;28;20568;-71
2022/11/17 09:00:45;;;;;;;10.03;4.27;;;;;;;-0.31;85.68;99245.75;4162199;28;25739;-69
2022/11/17 09:03:13;;;;;;;6.23;3.83;;;;;;;-0.28;85.64;99242.06;4154937;28;20291;-69
2022/11/17 09:05:42;;;;;;;6.17;3.63;;;;;;;-0.27;85.11;99239.38;4189833;28;20306;-71
2022/11/17 09:08:09;;;;;;;8.57;4.27;;;;;;;-0.37;85.64;99246.19;4155588;28;26536;-70
2022/11/17 09:10:55;;;;;;;8.53;4.17;;;;;;;-0.40;86.61;99242.94;4170614;28;20634;-73
2022/11/17 09:13:22;;;;;;;9.00;4.63;;;;;;;-0.38;86.48;99235.81;4163766;28;20745;-71
2022/11/17 09:15:48;;;;;;;8.47;4.30;;;;;;;-0.36;86.86;99242.63;4177990;28;21753;-68
2022/11/17 09:18:15;;;;;;;13.17;4.93;;;;;;;-0.37;86.77;99240.97;4165039;28;20238;-71
2022/11/17 09:20:42;;;;;;;7.53;4.87;;;;;;;-0.32;86.83;99245.88;4194771;28;20276;-69
2022/11/17 09:23:11;;;;;;;7.97;4.53;;;;;;;-0.25;86.80;99244.50;4183377;28;22452;-76
2022/11/17 09:25:38;;;;;;;8.53;4.80;;;;;;;-0.18;86.67;99242.31;4170158;28;20254;-70
2022/11/17 09:28:05;;;;;;;9.87;5.00;;;;;;;-0.23;86.89;99235.59;4205873;28;22794;-68
2022/11/17 09:30:31;;;;;;;8.73;5.17;;;;;;;-0.30;86.78;99234.38;4194509;28;20299;-68
2022/11/17 09:32:58;;;;;;;9.97;5.53;;;;;;;-0.24;87.03;99231.31;4162789;28;22646;-68
2022/11/17 09:35:24;;;;;;;10.60;6.60;;;;;;;-0.20;86.95;99234.56;4152746;28;21882;-67
2022/11/17 09:37:51;;;;;;;11.80;6.20;;;;;;;-0.24;86.65;99227.88;4181824;28;20277;-68
2022/11/17 09:40:18;;;;;;;10.03;5.57;;;;;;;-0.17;87.38;99233.50;4202883;28;20344;-69
2022/11/17 09:42:45;;;;;;;12.10;6.03;;;;;;;-0.24;87.45;99231.31;4186410;28;21605;-68
2022/11/17 09:45:28;;;;;;;11.07;5.83;;;;;;;-0.08;86.91;99230.25;4203314;28;20294;-68
2022/11/17 09:48:03;;;;;;;12.80;6.27;;;;;;;-0.11;86.20;99228.69;4178562;28;22029;-70
2022/11/17 09:50:51;;;;;;;8.30;5.10;;;;;;;-0.07;85.95;99234.53;4162379;28;20253;-70
2022/11/17 09:53:24;;;;;;;17.13;5.60;;;;;;;-0.18;85.54;99229.22;4164503;28;20327;-69
2022/11/17 09:55:55;;;;;;;10.27;5.80;;;;;;;-0.24;86.32;99235.69;4167013;28;20227;-68
2022/11/17 09:58:31;;;;;;;13.70;6.60;;;;;;;-0.33;86.28;99223.25;4209309;28;25676;-69
2022/11/17 10:00:59;;;;;;;10.30;5.83;;;;;;;-0.30;86.40;99225.69;4156098;28;25646;-68
2022/11/17 10:03:30;;;;;;;12.30;6.13;;;;;;;-0.32;86.57;99217.13;4192865;28;20317;-68
2022/11/17 10:05:57;;;;;;;11.10;6.00;;;;;;;-0.26;86.57;99214.91;4188719;28;21144;-68
2022/11/17 10:08:35;;;;;;;12.60;6.10;;;;;;;-0.23;86.29;99211.25;4171741;28;23490;-70
2022/11/17 10:11:30;;;;;;;11.20;5.70;;;;;;;-0.08;85.64;99212.78;4173776;28;20240;-68
2022/11/17 10:13:49;;;;;;;10.30;5.77;;;;;;;-0.27;86.85;99215.00;4190569;28;22614;-71
2022/11/17 10:16:15;;;;;;;11.73;6.30;;;;;;;-0.26;87.42;99211.44;4157383;28;22952;-70
2022/11/17 10:18:42;;;;;;;15.47;6.57;;;;;;;-0.22;86.59;99203.28;4187763;28;21780;-68
2022/11/17 10:21:09;;;;;;;11.10;6.27;;;;;;;-0.19;86.79;99211.84;4201967;28;20311;-66
2022/11/17 10:23:39;;;;;;;14.03;7.00;;;;;;;-0.24;86.55;99196.50;4182924;28;20529;-68
2022/11/17 10:26:13;;;;;;;11.50;6.50;;;;;;;-0.24;86.75;99196.50;4182163;28;22365;-70
2022/11/17 10:28:40;;;;;;;13.50;6.47;;;;;;;-0.16;85.75;99202.03;4169214;28;20402;-68
2022/11/17 10:31:10;;;;;;;12.00;6.13;;;;;;;-0.17;85.94;99202.13;4179247;28;20257;-69
2022/11/17 10:33:43;;;;;;;12.00;6.00;;;;;;;-0.17;86.36;99202.97;4166640;28;20243;-69
2022/11/17 10:36:25;;;;;;;12.77;6.50;;;;;;;-0.32;85.90;99204.03;4156098;28;20230;-69
2022/11/17 10:38:57;;;;;;;14.00;6.77;;;;;;;-0.41;85.49;99218.56;4172822;28;20240;-68
2022/11/17 10:41:27;;;;;;;11.00;6.27;;;;;;;-0.55;86.13;99206.44;4167257;28;25729;-68
2022/11/17 10:44:00;;;;;;;11.30;6.73;;;;;;;-0.44;86.15;99203.94;4160596;28;23997;-72
2022/11/17 10:46:27;;;;;;;11.33;6.27;;;;;;;-0.33;85.76;99204.97;4217196;28;20259;-68
2022/11/17 10:49:22;;;;;;;11.57;6.47;;;;;;;-0.23;84.69;99211.25;4197638;28;20243;-70
2022/11/17 10:52:08;;;;;;;13.33;7.30;;;;;;;-0.34;84.80;99203.31;4180860;28;21628;-66
2022/11/17 10:54:34;;;;;;;11.13;5.93;;;;;;;-0.38;84.94;99204.47;4194706;28;22183;-69
2022/11/17 10:57:05;;;;;;;11.93;6.70;;;;;;;-0.41;84.33;99204.69;4173340;28;20313;-68
2022/11/17 10:59:41;;;;;;;13.73;7.50;;;;;;;-0.34;84.25;99200.69;4151856;28;20445;-68
2022/11/17 11:02:30;;;;;;;15.17;7.80;;;;;;;-0.31;84.24;99198.69;4192837;28;20232;-69
2022/11/17 11:05:10;;;;;;;12.97;6.80;;;;;;;-0.39;83.68;99202.81;4180664;28;20234;-68
2022/11/17 11:07:37;;;;;;;18.33;7.37;;;;;;;-0.30;83.75;99199.56;4164893;28;21496;-68
2022/11/17 11:10:27;;;;;;;14.63;7.13;;;;;;;-0.39;83.90;99201.00;4162480;28;20239;-68
2022/11/17 11:13:19;;;;;;;11.33;6.07;;;;;;;-0.35;83.51;99197.25;4164121;28;23157;-68
2022/11/17 11:15:46;;;;;;;16.07;7.00;;;;;;;-0.35;82.69;99201.63;4165493;28;20338;-69
2022/11/17 11:18:16;;;;;;;14.27;6.50;;;;;;;-0.34;82.75;99193.69;4165338;28;20234;-69
2022/11/17 11:20:54;;;;;;;10.17;6.40;;;;;;;-0.31;82.03;99195.25;4204833;28;20265;-68
2022/11/17 11:23:34;;;;;;;13.07;6.73;;;;;;;-0.17;82.14;99195.13;4166977;28;20713;-68
2022/11/17 11:26:23;;;;;;;11.97;7.03;;;;;;;-0.19;82.16;99190.94;4193393;28;20540;-69
2022/11/17 11:29:10;;;;;;;12.83;6.40;;;;;;;-0.07;81.95;99188.31;4158848;28;20654;-70
2022/11/17 11:31:42;;;;;;;13.77;7.43;;;;;;;0.02;81.84;99188.59;4162644;28;20269;-68
2022/11/17 11:34:39;;;;;;;14.30;6.70;;;;;;;0.06;81.04;99184.81;4204830;28;20242;-68
2022/11/17 11:37:11;;;;;;;15.73;6.57;;;;;;;0.15;80.80;99199.88;4173010;28;20367;-70
2022/11/17 11:39:59;;;;;;;13.60;6.67;;;;;;;0.14;79.58;99187.72;4164614;28;22244;-66
2022/11/17 11:42:45;;;;;;;12.43;6.50;;;;;;;0.16;78.58;99194.53;4169177;28;20237;-67
2022/11/17 11:45:28;;;;;;;11.23;6.40;;;;;;;0.04;79.19;99184.09;4183621;28;20301;-68
2022/11/17 11:48:06;;;;;;;11.93;6.27;;;;;;;0.20;78.42;99188.13;4179193;28;20238;-69
2022/11/17 11:50:35;;;;;;;12.23;5.63;;;;;;;0.13;78.15;99186.06;4189436;28;20743;-69
2022/11/17 11:53:23;;;;;;;12.50;6.50;;;;;;;0.14;77.57;99190.34;4163371;28;20240;-68
2022/11/17 11:56:15;;;;;;;12.67;6.43;;;;;;;0.06;77.52;99179.59;4159533;28;21827;-68
2022/11/17 11:58:46;;;;;;;9.57;5.60;;;;;;;0.18;77.06;99194.41;4159427;28;21635;-68
2022/11/17 12:01:14;;;;;;;12.40;6.17;;;;;;;0.25;76.30;99190.41;4172378;28;20245;-67
2022/11/17 12:03:52;;;;;;;10.47;6.03;;;;;;;0.27;76.25;99188.53;4167643;28;22002;-69
2022/11/17 12:06:41;;;;;;;10.13;6.20;;;;;;;0.43;75.85;99185.63;4177521;28;20460;-68
2022/11/17 12:09:13;;;;;;;11.97;6.87;;;;;;;0.40;76.29;99178.84;4179870;28;20281;-68
2022/11/17 12:11:59;;;;;;;11.43;6.60;;;;;;;0.41;75.40;99185.72;4170151;28;20238;-70
2022/11/17 12:14:34;;;;;;;12.10;6.17;;;;;;;0.40;75.38;99183.25;4170853;28;20250;-71
2022/11/17 12:17:16;;;;;;;10.87;5.73;;;;;;;0.46;74.47;99174.09;4172683;28;20235;-68
2022/11/17 12:20:01;;;;;;;11.30;5.90;;;;;;;0.38;76.40;99178.13;4175562;28;25457;-64
2022/11/17 12:22:35;;;;;;;14.33;6.47;;;;;;;0.45;75.51;99186.38;4174164;28;20684;-66
2022/11/17 12:25:18;;;;;;;19.53;8.37;;;;;;;0.34;75.83;99181.91;4177706;28;20242;-68